Date,TemperatureHighF,TemperatureAvgF,TemperatureLowF,DewpointHighF,DewpointAvgF,DewpointLowF,HumidityHigh,HumidityAvg,HumidityLow,PressureMaxIn,PressureMinIn,WindSpeedMaxMPH,WindSpeedAvgMPH,GustSpeedMaxMPH,PrecipitationSumIn
2013-1-1,44,32,26,34,27,21,96,83,50,29.74,29.62,4,0,4,0.00
2013-1-2,46,30,23,26,21,18,87,72,42,29.62,29.47,3,0,3,0.00
2013-1-3,44,28,22,34,21,17,86,73,46,29.56,29.41,4,0,4,0.00
2013-1-4,56,44,38,44,39,34,95,83,56,29.62,29.47,4,0,4,0.00
2013-1-5,38,37,34,37,35,33,97,94,89,29.50,29.44,7,0,7,0.04
2013-1-6,49,42,37,46,39,35,98,88,65,29.53,29.41,6,0,6,0.04
2013-1-7,52,48,43,50,45,39,95,89,83,29.53,29.35,6,1,6,0.16
2013-1-8,54,50,47,48,45,43,96,82,66,29.53,29.23,8,1,8,0.04
2013-1-9,50,42,34,44,37,31,93,83,64,29.29,29.03,10,1,10,0.35
2013-1-10,40,36,34,37,34,31,96,93,83,29.41,29.29,4,0,4,0.16
2013-1-11,43,32,27,38,28,22,98,87,59,29.59,29.41,4,0,4,0.00
2013-1-12,41,29,23,29,24,18,92,80,54,29.68,29.59,4,0,4,0.00
2013-1-13,30,27,25,26,23,20,93,83,68,29.77,29.68,4,0,4,0.00
2013-1-14,37,31,27,30,25,22,88,78,61,29.85,29.77,6,0,6,0.00
2013-1-15,40,35,33,37,32,28,93,87,79,29.94,29.83,4,0,4,0.00
2013-1-16,36,34,32,34,32,31,97,94,90,29.91,29.77,4,0,4,0.00
2013-1-17,35,32,31,34,31,30,98,97,94,29.77,29.62,2,0,2,0.00
2013-1-18,34,31,28,33,30,28,98,98,97,29.62,29.56,3,0,3,0.00
2013-1-19,32,29,23,32,28,23,98,98,98,29.62,29.56,4,0,4,0.00
2013-1-20,31,28,24,31,27,24,98,98,98,29.65,29.53,4,0,4,0.00
2013-1-21,31,27,24,30,27,23,98,98,98,29.56,29.44,5,0,5,0.00
2013-1-22,34,28,22,32,27,22,98,97,95,29.44,29.23,4,0,4,0.00
2013-1-23,36,33,31,35,33,30,98,98,96,29.50,29.18,4,0,4,0.28
2013-1-24,46,37,32,46,36,31,98,98,98,29.50,29.41,5,0,5,0.28
2013-1-25,51,47,40,50,46,39,98,98,98,29.44,29.26,4,0,4,0.35
2013-1-26,46,41,36,41,37,32,98,88,68,29.41,29.26,8,0,8,0.35
2013-1-27,44,39,37,41,37,36,97,93,80,29.47,29.38,5,0,5,0.28
2013-1-28,43,41,37,42,40,36,98,97,96,29.53,29.41,6,1,6,0.63
2013-1-29,46,44,42,46,43,42,98,98,97,29.80,29.53,5,0,5,0.35
2013-1-30,48,45,42,46,44,41,98,96,89,29.80,29.74,5,0,5,0.28
2013-1-31,57,48,44,50,42,35,98,84,49,29.77,29.65,6,0,6,0.28
2013-2-1,60,45,35,44,39,31,91,79,49,29.65,29.53,4,0,4,0.28
2013-2-2,46,37,31,44,35,29,98,92,81,29.62,29.56,4,0,4,0.28
2013-2-3,50,44,34,43,40,33,98,87,69,29.62,29.53,5,0,5,0.28
2013-2-4,54,46,40,41,38,35,93,77,53,29.53,29.23,4,0,4,0.28
2013-2-5,51,46,43,43,38,34,90,75,59,29.38,29.23,8,1,8,0.28
2013-2-6,53,46,41,39,35,31,85,66,45,29.41,29.15,9,1,9,0.28
2013-2-7,49,40,32,37,33,28,88,76,46,29.41,29.26,8,0,8,0.08
2013-2-8,49,37,31,39,31,26,97,81,47,29.56,29.41,4,0,4,0.28
2013-2-9,45,40,35,39,35,31,94,84,65,29.59,29.56,4,0,4,0.28
2013-2-10,45,42,40,43,38,33,98,85,71,29.62,29.59,2,0,2,0.28
2013-2-11,47,43,39,41,35,31,90,75,56,29.71,29.59,5,0,5,0.28
2013-2-12,54,47,43,49,43,40,98,86,62,29.80,29.71,3,0,4,0.28
2013-2-13,52,48,45,44,42,38,91,79,66,29.80,29.74,5,0,5,0.28
2013-2-14,62,46,37,47,39,34,95,77,40,29.85,29.77,5,0,5,0.00
2013-2-15,63,44,36,47,38,33,97,81,43,29.77,29.50,5,0,5,0.00
2013-2-16,51,42,34,49,38,32,98,88,73,29.59,29.53,4,0,4,0.04
2013-2-17,48,40,32,40,31,24,94,71,41,29.59,29.38,3,0,3,0.00
2013-2-18,49,40,32,35,29,26,89,67,43,29.38,29.06,8,0,8,0.00
2013-2-19,57,43,36,39,33,29,88,71,40,29.29,28.97,5,0,5,0.04
2013-2-20,49,41,34,38,34,29,90,76,47,29.41,29.29,6,0,6,0.20
2013-2-21,43,41,37,39,36,34,91,83,69,29.53,29.41,4,0,5,0.08
2013-2-22,45,42,37,41,37,33,91,81,63,29.50,29.23,7,1,7,0.31
2013-2-23,48,39,33,38,33,28,92,78,51,29.74,29.41,8,0,8,0.08
2013-2-24,55,42,32,36,31,24,93,68,37,29.74,29.38,6,0,6,0.20
2013-2-25,52,43,35,38,34,26,87,70,38,29.71,29.35,13,2,13,0.12
2013-2-26,53,39,33,33,30,25,90,71,37,29.71,29.53,6,0,6,0.00
2013-2-27,53,44,39,40,34,30,77,67,46,29.62,29.53,6,0,6,0.00
2013-2-28,57,52,47,51,47,40,92,84,71,29.77,29.50,6,0,6,0.08
2013-3-1,65,55,48,50,45,40,92,73,42,29.77,29.62,6,0,6,0.00
2013-3-2,55,49,43,47,43,39,87,79,63,29.62,29.47,6,0,6,0.04
2013-3-3,56,42,32,39,29,23,87,62,35,29.62,29.50,5,0,5,0.00
2013-3-4,60,40,26,33,27,21,85,62,31,29.50,29.21,5,0,5,0.00
2013-3-5,52,43,37,41,35,26,90,75,52,29.21,28.91,5,0,5,0.20
2013-3-6,46,42,40,41,38,33,97,87,69,29.26,28.85,6,0,6,0.35
2013-3-7,62,46,34,37,32,29,90,62,34,29.32,29.26,4,0,4,0.00
2013-3-8,64,43,31,38,32,27,91,67,35,29.50,29.29,6,0,6,0.00
2013-3-9,66,45,32,36,30,25,86,59,27,29.80,29.50,6,0,6,0.00
2013-3-10,55,46,36,44,34,26,84,63,43,29.80,29.71,4,0,4,0.00
2013-3-11,58,51,47,50,46,44,95,83,61,29.71,29.53,4,0,4,0.00
2013-3-12,60,51,45,48,44,40,95,78,49,29.53,29.47,5,0,5,0.00
2013-3-13,69,55,46,45,43,37,89,66,33,29.53,29.38,5,0,5,0.00
2013-3-14,60,53,48,47,42,33,81,69,38,29.53,29.35,6,0,6,0.00
2013-3-15,67,56,50,48,42,36,84,62,34,29.53,29.47,6,0,6,0.00
2013-3-16,50,46,40,44,41,35,88,82,70,29.50,29.32,10,1,10,0.31
2013-3-17,42,38,36,36,33,32,86,84,76,29.62,29.47,6,0,6,0.04
2013-4-19,60,60,60,44,44,44,54,54,54,29.85,29.85,2,0,2,0.00